Aeroporto :







RITROVATECI SU...

 
LOGIN :

Iscrizione | Disclaimer

   EN    FR    IT 

 









Sommario :    VFR   VFR Marginale   IFR   IFR Intensivo   IFR Molto Intensivo
Visibilità : 
Base nubi : 
>= 8 km
>= 3000ft
5 / 8 km
1000 / 3000 ft
1500m / 5 km
500 / 1000 ft
800 / 1500m
200 / 500 ft
< 800m
< 200 ft
Simboli :   Temporali  Nebbia  Neve Forte  Precipitazioni Forti  Vento > 20 kt






- Altitudine del aeroporto : 129 ft
- Codice IATA : YVP


CYVP - Kuujjuak

ULTIMO METAR :
  • 230200Z 35009G16KT 15SM -SN SCT018 M19/M22 A2962 RMK SC4 SLP036

METARs OBSOLETI :
  • 230100Z 36012KT 8SM -SN BKN024 M18/M21 A2958 RMK SC6 SLP023
  • 230000Z 35010G18KT 3SM -SN OVC020 M17/M20 A2954 RMK SN3SC5 SLP010
  • 222300Z 36012G19KT 2SM -SN DRSN OVC020 M16/M19 A2950 RMK SN1SC7 /S01/ SLP996

TAF TAF CYVP
Valido dal 23 a 00 ore il 23 a 12 ore UTC


222338Z 2300/2312 36012KT P6SM BKN040
TEMPO 2300/2303 2SM -SN BR
FM230300 34012KT P6SM SKC
PROB30 2308/2312 2SM IC RMK NXT FCST BY 230600Z



MetMap, La meteo Aeronautica in un colpo d'occhio ! - Copyright ORBIFLY Dicembre 2007 - Disclaimer

ORBIFLY MET'MAP TEAM :

Programmazione e sviluppo : Alexandra Zaïnal
Concezione : Baudouin d'Aumeries
Aiuto per la programmazione : Marc-Olivier Méhu
Supporto tecnico e logistico : Manuel Goepfert
Aiuto per la traduzione : Arnaldo La Scala

Contatto : metmap@orbifly.com




FONTI E CREDITI :

   NOAA